Time;durP1;ratioP1;P1;durP2;ratioP2;P2;SDS_P1;SDS_P2;PMS_P1;PMS_P2;Temp;Humidity;BMP_temperature;BMP_pressure;BME280_temperature;BME280_humidity;BME280_pressure;Samples;Min_cycle;Max_cycle;Signal;HPM_P1;HPM_P2
2022/01/01 00:00:33;;;;;;;39.70;12.95;;;;;;;;;;5006922;28;20080;-74
2022/01/01 00:03:00;;;;;;;42.63;10.85;;;;;;;;;;5008967;28;20049;-74
2022/01/01 00:05:26;;;;;;;46.35;10.75;;;;;;;;;;5008721;28;20441;-74
2022/01/01 00:07:52;;;;;;;35.13;9.60;;;;;;;;;;5012203;28;20198;-74
2022/01/01 00:10:20;;;;;;;47.70;11.75;;;;;;;;;;5008949;28;20406;-74
2022/01/01 00:12:47;;;;;;;40.45;11.50;;;;;;;;;;5002949;28;20088;-74
2022/01/01 00:15:13;;;;;;;48.58;12.52;;;;;;;;;;5010087;28;20421;-74
2022/01/01 00:17:41;;;;;;;49.28;13.75;;;;;;;;;;5007497;28;20057;-74
2022/01/01 00:20:09;;;;;;;49.17;14.07;;;;;;;;;;5014952;28;20083;-74
2022/01/01 00:22:35;;;;;;;41.03;12.73;;;;;;;;;;5007227;28;20049;-74
2022/01/01 00:25:01;;;;;;;44.00;13.38;;;;;;;;;;5009020;28;20066;-73
2022/01/01 00:27:27;;;;;;;49.88;14.25;;;;;;;;;;5009743;28;20050;-73
2022/01/01 00:29:53;;;;;;;48.28;13.70;;;;;;;;;;5006313;28;20049;-74
2022/01/01 00:32:19;;;;;;;50.95;14.93;;;;;;;;;;5009613;28;20069;-74
2022/01/01 00:34:45;;;;;;;55.80;16.42;;;;;;;;;;5006678;28;20133;-74
2022/01/01 00:37:11;;;;;;;63.00;18.90;;;;;;;;;;5012713;28;20057;-74
2022/01/01 00:39:37;;;;;;;47.08;16.67;;;;;;;;;;5002258;28;20050;-73
2022/01/01 00:42:04;;;;;;;54.33;21.58;;;;;;;;;;5007397;28;20501;-74
2022/01/01 00:44:30;;;;;;;62.03;24.00;;;;;;;;;;5003665;28;20046;-74
2022/01/01 00:46:57;;;;;;;67.28;25.80;;;;;;;;;;5013969;28;20057;-73
2022/01/01 00:49:23;;;;;;;66.53;28.58;;;;;;;;;;5007854;28;20116;-74
2022/01/01 00:51:49;;;;;;;63.13;25.25;;;;;;;;;;5008009;28;20061;-74
2022/01/01 00:54:15;;;;;;;60.55;23.08;;;;;;;;;;5005099;28;20042;-74
2022/01/01 00:56:41;;;;;;;56.58;23.88;;;;;;;;;;5007386;28;20049;-74
2022/01/01 00:59:07;;;;;;;55.33;21.60;;;;;;;;;;5010015;28;20375;-74
2022/01/01 01:01:33;;;;;;;61.38;21.95;;;;;;;;;;5004183;28;20486;-73
2022/01/01 01:03:59;;;;;;;65.30;20.50;;;;;;;;;;5006740;28;20044;-74
2022/01/01 01:06:25;;;;;;;59.25;20.98;;;;;;;;;;5001988;28;20140;-73
2022/01/01 01:08:53;;;;;;;60.40;19.55;;;;;;;;;;5007569;28;20076;-73
2022/01/01 01:11:20;;;;;;;54.75;16.75;;;;;;;;;;5005640;28;20129;-74
2022/01/01 01:13:55;;;;;;;53.15;17.05;;;;;;;;;;5004168;28;20156;-73
2022/01/01 01:16:21;;;;;;;57.38;16.58;;;;;;;;;;5004959;28;20100;-74
2022/01/01 01:18:47;;;;;;;55.60;17.25;;;;;;;;;;5005451;28;20149;-73
2022/01/01 01:21:13;;;;;;;50.88;16.10;;;;;;;;;;5007698;28;20065;-74
2022/01/01 01:23:39;;;;;;;60.03;18.38;;;;;;;;;;5003900;28;20046;-74
2022/01/01 01:26:07;;;;;;;45.47;14.25;;;;;;;;;;5008487;28;20049;-74
2022/01/01 01:28:34;;;;;;;55.50;14.07;;;;;;;;;;5007098;28;20049;-74
2022/01/01 01:31:00;;;;;;;50.20;13.13;;;;;;;;;;5006905;28;20548;-74
2022/01/01 01:33:26;;;;;;;47.95;12.88;;;;;;;;;;5009634;28;20524;-74
2022/01/01 01:35:52;;;;;;;42.45;13.02;;;;;;;;;;5004189;28;20081;-74
2022/01/01 01:38:18;;;;;;;47.03;11.00;;;;;;;;;;5010792;28;20085;-74
2022/01/01 01:40:44;;;;;;;52.50;13.52;;;;;;;;;;5005393;28;20432;-74
2022/01/01 01:43:12;;;;;;;59.35;13.68;;;;;;;;;;5004700;28;20092;-73
2022/01/01 01:45:38;;;;;;;55.83;13.25;;;;;;;;;;5007774;28;20473;-73
2022/01/01 01:48:05;;;;;;;53.67;13.63;;;;;;;;;;5006279;28;20372;-74
2022/01/01 01:50:33;;;;;;;53.05;12.48;;;;;;;;;;5008774;28;20042;-73
2022/01/01 01:53:00;;;;;;;54.30;14.07;;;;;;;;;;5005593;28;20132;-73
2022/01/01 01:55:27;;;;;;;61.63;15.23;;;;;;;;;;5006252;28;20049;-73
2022/01/01 01:57:54;;;;;;;44.70;13.40;;;;;;;;;;5022442;28;20042;-73
2022/01/01 02:02:53;;;;;;;49.10;13.38;;;;;;;;;;5007989;28;20249;-73
2022/01/01 02:05:19;;;;;;;52.30;13.20;;;;;;;;;;5005656;28;20469;-73
2022/01/01 02:07:49;;;;;;;54.95;14.07;;;;;;;;;;5006676;28;20060;-73
2022/01/01 02:10:15;;;;;;;47.08;12.77;;;;;;;;;;5006388;28;20125;-73
2022/01/01 02:12:42;;;;;;;48.75;12.90;;;;;;;;;;5007047;28;20110;-73
2022/01/01 02:15:25;;;;;;;58.85;13.80;;;;;;;;;;5008219;28;20052;-73
2022/01/01 02:17:51;;;;;;;54.85;13.40;;;;;;;;;;5007559;28;20046;-73
2022/01/01 02:20:19;;;;;;;46.95;11.80;;;;;;;;;;5007690;28;20050;-73
2022/01/01 02:22:47;;;;;;;66.45;13.00;;;;;;;;;;5005436;28;20049;-73
2022/01/01 02:25:14;;;;;;;46.45;12.80;;;;;;;;;;5008441;28;20054;-75
2022/01/01 02:27:40;;;;;;;52.67;13.18;;;;;;;;;;5009228;28;20164;-75
2022/01/01 02:30:07;;;;;;;48.72;13.30;;;;;;;;;;5007566;28;20049;-75
2022/01/01 02:32:33;;;;;;;50.67;11.98;;;;;;;;;;5004308;28;20436;-73
2022/01/01 02:34:59;;;;;;;52.88;13.55;;;;;;;;;;5009606;28;20038;-73
2022/01/01 02:37:25;;;;;;;50.55;12.63;;;;;;;;;;5001035;28;20050;-73
2022/01/01 02:39:51;;;;;;;68.93;14.35;;;;;;;;;;5009444;28;20100;-73
2022/01/01 02:42:22;;;;;;;57.40;13.15;;;;;;;;;;5009232;28;20088;-73
2022/01/01 02:44:50;;;;;;;66.63;14.00;;;;;;;;;;5006650;28;20053;-73
2022/01/01 02:47:16;;;;;;;55.05;14.05;;;;;;;;;;5007458;28;20054;-73
2022/01/01 02:49:42;;;;;;;65.30;15.10;;;;;;;;;;5008771;28;20042;-73
2022/01/01 02:52:09;;;;;;;59.45;14.57;;;;;;;;;;5008309;28;21409;-73
2022/01/01 02:54:35;;;;;;;54.97;13.88;;;;;;;;;;5003833;28;20062;-73
2022/01/01 02:57:01;;;;;;;60.33;15.15;;;;;;;;;;5008299;28;20046;-73
2022/01/01 02:59:27;;;;;;;59.75;14.07;;;;;;;;;;5004496;28;20046;-73
2022/01/01 03:01:53;;;;;;;52.88;13.60;;;;;;;;;;5008557;28;20455;-74
2022/01/01 03:04:19;;;;;;;67.50;14.07;;;;;;;;;;5008222;28;20398;-73
2022/01/01 03:06:52;;;;;;;57.42;14.43;;;;;;;;;;5010378;28;20038;-75
2022/01/01 03:09:18;;;;;;;66.78;14.95;;;;;;;;;;5008744;28;20152;-75
2022/01/01 03:11:44;;;;;;;65.60;14.13;;;;;;;;;;5010888;28;20084;-73
2022/01/01 03:14:12;;;;;;;61.90;14.77;;;;;;;;;;5011700;28;20053;-73
2022/01/01 03:16:38;;;;;;;57.10;14.18;;;;;;;;;;5010446;28;20091;-73
2022/01/01 03:19:04;;;;;;;59.45;13.20;;;;;;;;;;5010020;28;20038;-73
2022/01/01 03:21:30;;;;;;;59.45;14.23;;;;;;;;;;5007502;28;20057;-73
2022/01/01 03:23:56;;;;;;;58.97;14.63;;;;;;;;;;5011428;28;20053;-73
2022/01/01 03:26:22;;;;;;;60.92;13.35;;;;;;;;;;5007804;28;20054;-73
2022/01/01 03:28:48;;;;;;;94.18;36.08;;;;;;;;;;5012871;28;20040;-74
2022/01/01 03:31:14;;;;;;;69.13;15.23;;;;;;;;;;5009268;28;20034;-74
2022/01/01 03:33:40;;;;;;;58.42;14.20;;;;;;;;;;5010163;28;20508;-73
2022/01/01 03:36:06;;;;;;;52.15;13.90;;;;;;;;;;5008465;28;20073;-73
2022/01/01 03:38:32;;;;;;;52.63;14.30;;;;;;;;;;5011891;28;20088;-73
2022/01/01 03:40:58;;;;;;;60.88;14.10;;;;;;;;;;5007890;28;20042;-73
2022/01/01 03:43:24;;;;;;;54.88;13.40;;;;;;;;;;5009811;28;20037;-73
2022/01/01 03:45:50;;;;;;;51.15;13.93;;;;;;;;;;5007640;28;20053;-73
2022/01/01 03:48:16;;;;;;;44.95;13.43;;;;;;;;;;5004909;28;20034;-73
2022/01/01 03:50:42;;;;;;;42.75;12.88;;;;;;;;;;5011122;28;20096;-73
2022/01/01 03:53:10;;;;;;;44.72;12.80;;;;;;;;;;5007579;28;20482;-73
2022/01/01 03:55:36;;;;;;;42.70;13.20;;;;;;;;;;5010413;28;20049;-73
2022/01/01 03:58:02;;;;;;;58.13;13.75;;;;;;;;;;5010757;28;20084;-73
2022/01/01 04:00:28;;;;;;;45.53;12.85;;;;;;;;;;5003370;28;20066;-73
2022/01/01 04:02:55;;;;;;;49.10;13.65;;;;;;;;;;5005054;28;20125;-73
2022/01/01 04:05:21;;;;;;;47.03;13.43;;;;;;;;;;5012233;28;20042;-73
2022/01/01 04:07:47;;;;;;;49.70;13.48;;;;;;;;;;5008811;28;20046;-73
2022/01/01 04:10:13;;;;;;;44.90;13.75;;;;;;;;;;5012487;28;20092;-73
2022/01/01 04:12:39;;;;;;;50.65;13.45;;;;;;;;;;5005570;28;20046;-73
2022/01/01 04:15:06;;;;;;;56.53;14.63;;;;;;;;;;5008960;28;20493;-73
2022/01/01 04:17:36;;;;;;;56.78;15.20;;;;;;;;;;5011685;28;20495;-73
2022/01/01 04:20:03;;;;;;;52.58;14.55;;;;;;;;;;5008114;28;20153;-73
2022/01/01 04:22:29;;;;;;;58.45;15.10;;;;;;;;;;5007154;28;20390;-73
2022/01/01 04:24:55;;;;;;;54.78;17.02;;;;;;;;;;5007150;28;20184;-73
2022/01/01 04:27:21;;;;;;;61.85;18.35;;;;;;;;;;5011021;28;20121;-73
2022/01/01 04:29:47;;;;;;;61.10;18.80;;;;;;;;;;5007730;28;20041;-74
2022/01/01 04:32:14;;;;;;;65.57;19.42;;;;;;;;;;5010622;28;21120;-73
2022/01/01 04:34:40;;;;;;;66.25;22.20;;;;;;;;;;5006163;28;20065;-73
2022/01/01 04:37:12;;;;;;;72.70;21.58;;;;;;;;;;5009951;28;20061;-73
2022/01/01 04:39:38;;;;;;;75.63;19.15;;;;;;;;;;5008955;28;20042;-74
2022/01/01 04:42:05;;;;;;;70.45;19.10;;;;;;;;;;5007487;28;20049;-73
2022/01/01 04:44:31;;;;;;;62.90;17.83;;;;;;;;;;5007329;28;20045;-73
2022/01/01 04:46:57;;;;;;;52.45;16.23;;;;;;;;;;5008928;28;20054;-73
2022/01/01 04:49:23;;;;;;;50.38;16.40;;;;;;;;;;5008241;28;20048;-73
2022/01/01 04:51:49;;;;;;;65.68;18.73;;;;;;;;;;5006829;28;20042;-73
2022/01/01 04:54:16;;;;;;;55.05;16.85;;;;;;;;;;5008503;28;20111;-73
2022/01/01 04:56:46;;;;;;;49.95;17.55;;;;;;;;;;5009715;28;20354;-73
2022/01/01 04:59:12;;;;;;;69.43;19.65;;;;;;;;;;5006513;28;20046;-73
2022/01/01 05:01:39;;;;;;;59.25;19.65;;;;;;;;;;5007274;28;20050;-73
2022/01/01 05:04:06;;;;;;;65.20;20.73;;;;;;;;;;5009495;28;20053;-73
2022/01/01 05:06:32;;;;;;;54.28;19.75;;;;;;;;;;5006171;28;20056;-73
2022/01/01 05:08:58;;;;;;;69.97;21.00;;;;;;;;;;5008219;28;20049;-73
2022/01/01 05:11:24;;;;;;;56.47;20.98;;;;;;;;;;5008286;28;20056;-73
2022/01/01 05:13:50;;;;;;;60.25;20.95;;;;;;;;;;5001521;28;20414;-73
2022/01/01 05:16:18;;;;;;;58.00;22.00;;;;;;;;;;5010041;28;20136;-73
2022/01/01 05:18:44;;;;;;;50.47;20.73;;;;;;;;;;5001639;28;20038;-73
2022/01/01 05:21:10;;;;;;;50.10;20.17;;;;;;;;;;5008624;28;20045;-73
2022/01/01 05:23:37;;;;;;;56.33;20.45;;;;;;;;;;5005426;28;20468;-73
2022/01/01 05:26:03;;;;;;;48.13;18.88;;;;;;;;;;5005437;28;20049;-73
2022/01/01 05:28:29;;;;;;;58.83;19.17;;;;;;;;;;5007646;28;20466;-73
2022/01/01 05:30:55;;;;;;;45.47;18.17;;;;;;;;;;5007897;28;20057;-74
2022/01/01 05:33:21;;;;;;;52.38;17.58;;;;;;;;;;5006417;28;20042;-73
2022/01/01 05:35:47;;;;;;;47.50;17.90;;;;;;;;;;5007863;28;20050;-73
2022/01/01 05:38:13;;;;;;;45.67;16.10;;;;;;;;;;5010391;28;20506;-73
2022/01/01 05:40:39;;;;;;;45.38;15.13;;;;;;;;;;5006610;28;20049;-73
2022/01/01 05:43:12;;;;;;;47.03;13.32;;;;;;;;;;5009285;28;20038;-73
2022/01/01 05:45:38;;;;;;;40.88;14.80;;;;;;;;;;5007561;28;20050;-73
2022/01/01 05:48:04;;;;;;;45.25;14.40;;;;;;;;;;5008445;28;20091;-73
2022/01/01 05:50:30;;;;;;;41.65;13.45;;;;;;;;;;5007054;28;20049;-73
2022/01/01 05:52:56;;;;;;;43.22;13.95;;;;;;;;;;5007479;28;20375;-73
2022/01/01 05:55:22;;;;;;;44.08;13.73;;;;;;;;;;5005586;28;20050;-73
2022/01/01 05:57:48;;;;;;;40.60;13.73;;;;;;;;;;5008352;28;20045;-72
2022/01/01 06:00:14;;;;;;;36.20;13.55;;;;;;;;;;5007700;28;20042;-73
2022/01/01 06:02:41;;;;;;;34.33;12.85;;;;;;;;;;5005570;28;20054;-73
2022/01/01 06:05:07;;;;;;;40.38;13.68;;;;;;;;;;5010492;28;20042;-73
2022/01/01 06:07:33;;;;;;;41.70;13.63;;;;;;;;;;5005717;28;20045;-73
2022/01/01 06:09:59;;;;;;;47.17;14.70;;;;;;;;;;5007578;28;20049;-73
2022/01/01 06:12:26;;;;;;;36.70;13.63;;;;;;;;;;5007323;28;20054;-73
2022/01/01 06:14:52;;;;;;;42.70;13.80;;;;;;;;;;5008381;28;20053;-73
2022/01/01 06:17:18;;;;;;;44.10;14.77;;;;;;;;;;5007394;28;20066;-73
2022/01/01 06:19:44;;;;;;;41.10;15.32;;;;;;;;;;5007986;28;20037;-73
2022/01/01 06:22:10;;;;;;;36.45;14.25;;;;;;;;;;5003782;28;20046;-73
2022/01/01 06:24:36;;;;;;;36.30;14.10;;;;;;;;;;5007550;28;20536;-73
2022/01/01 06:27:02;;;;;;;39.70;15.77;;;;;;;;;;5002245;28;20042;-73
2022/01/01 06:29:28;;;;;;;35.45;14.90;;;;;;;;;;5006076;28;20509;-73
2022/01/01 06:31:54;;;;;;;49.55;17.35;;;;;;;;;;5007504;28;20080;-73
2022/01/01 06:34:20;;;;;;;44.53;16.23;;;;;;;;;;5007308;28;20085;-73
2022/01/01 06:36:46;;;;;;;46.35;16.05;;;;;;;;;;5007226;28;20115;-74
2022/01/01 06:39:12;;;;;;;44.13;16.88;;;;;;;;;;5013681;28;20550;-73
2022/01/01 06:41:38;;;;;;;42.55;17.25;;;;;;;;;;5011963;28;20056;-73
2022/01/01 06:44:05;;;;;;;34.70;15.35;;;;;;;;;;5010257;28;20041;-73
2022/01/01 06:46:31;;;;;;;32.47;13.32;;;;;;;;;;5011060;28;20052;-73
2022/01/01 06:48:57;;;;;;;32.47;13.35;;;;;;;;;;5013245;28;20045;-73
2022/01/01 06:51:23;;;;;;;32.45;12.73;;;;;;;;;;5009742;28;20056;-73
2022/01/01 06:53:49;;;;;;;35.88;13.07;;;;;;;;;;5012980;28;20054;-73
2022/01/01 06:56:15;;;;;;;30.67;14.35;;;;;;;;;;5007466;28;20054;-73
2022/01/01 06:58:41;;;;;;;36.65;14.43;;;;;;;;;;5011984;28;20115;-73
2022/01/01 07:01:07;;;;;;;32.33;14.18;;;;;;;;;;5012356;28;20088;-73
2022/01/01 07:03:34;;;;;;;35.30;15.55;;;;;;;;;;5012205;28;20060;-73
2022/01/01 07:06:00;;;;;;;36.63;15.15;;;;;;;;;;5011006;28;20042;-73
2022/01/01 07:08:26;;;;;;;33.72;15.32;;;;;;;;;;5011744;28;20542;-73
2022/01/01 07:10:52;;;;;;;41.97;16.00;;;;;;;;;;5011281;28;20050;-73
2022/01/01 07:13:18;;;;;;;35.03;16.15;;;;;;;;;;5012713;28;20090;-73
2022/01/01 07:15:44;;;;;;;41.70;16.95;;;;;;;;;;5010966;28;20061;-73
2022/01/01 07:18:10;;;;;;;42.45;18.05;;;;;;;;;;5010313;28;20125;-73
2022/01/01 07:20:40;;;;;;;41.30;17.25;;;;;;;;;;5012680;28;20100;-76
2022/01/01 07:23:06;;;;;;;39.13;16.73;;;;;;;;;;5009266;28;20399;-73
2022/01/01 07:25:32;;;;;;;43.60;18.17;;;;;;;;;;5008658;28;20533;-73
2022/01/01 07:27:58;;;;;;;40.17;18.80;;;;;;;;;;5010395;28;20432;-73
2022/01/01 07:30:24;;;;;;;40.88;17.27;;;;;;;;;;5011136;28;20050;-73
2022/01/01 07:32:50;;;;;;;40.33;18.98;;;;;;;;;;5008154;28;20705;-73
2022/01/01 07:35:17;;;;;;;36.78;18.30;;;;;;;;;;5013160;28;20073;-73
2022/01/01 07:37:43;;;;;;;41.13;18.33;;;;;;;;;;5003478;28;20421;-73
2022/01/01 07:40:11;;;;;;;39.42;17.60;;;;;;;;;;5005085;28;20121;-73
2022/01/01 07:42:37;;;;;;;37.97;17.35;;;;;;;;;;5023812;28;20071;-73
2022/01/01 07:45:03;;;;;;;38.03;18.85;;;;;;;;;;5008663;28;20092;-73
2022/01/01 07:47:29;;;;;;;43.05;17.92;;;;;;;;;;5004350;28;20504;-73
2022/01/01 07:49:55;;;;;;;40.88;17.83;;;;;;;;;;5003545;28;20050;-73
2022/01/01 07:52:21;;;;;;;44.38;19.02;;;;;;;;;;5004137;28;20045;-73
2022/01/01 07:54:47;;;;;;;41.58;19.10;;;;;;;;;;5008232;28;20768;-73
2022/01/01 07:57:13;;;;;;;41.70;19.75;;;;;;;;;;5010401;28;20046;-73
2022/01/01 07:59:39;;;;;;;39.45;19.48;;;;;;;;;;5002727;28;20104;-73
2022/01/01 08:02:05;;;;;;;37.28;18.77;;;;;;;;;;5012653;28;20077;-74
2022/01/01 08:04:31;;;;;;;37.58;19.55;;;;;;;;;;5008270;28;20053;-73
2022/01/01 08:06:57;;;;;;;43.15;20.15;;;;;;;;;;5006389;28;20445;-73
2022/01/01 08:09:23;;;;;;;38.50;20.05;;;;;;;;;;5004307;28;20045;-73
2022/01/01 08:11:54;;;;;;;43.80;20.63;;;;;;;;;;5010402;28;20049;-73
2022/01/01 08:14:20;;;;;;;47.40;21.73;;;;;;;;;;5002005;28;20046;-73
2022/01/01 08:16:56;;;;;;;39.20;19.73;;;;;;;;;;5005272;28;20038;-73
2022/01/01 08:19:22;;;;;;;37.22;19.75;;;;;;;;;;5009058;28;20136;-73
2022/01/01 08:21:48;;;;;;;40.50;20.00;;;;;;;;;;5005629;28;20133;-73
2022/01/01 08:24:14;;;;;;;39.00;19.10;;;;;;;;;;5005974;28;20045;-73
2022/01/01 08:26:40;;;;;;;39.67;19.25;;;;;;;;;;5004121;28;20062;-73
2022/01/01 08:29:06;;;;;;;38.83;19.00;;;;;;;;;;5022438;28;20046;-73
2022/01/01 08:31:32;;;;;;;35.47;19.42;;;;;;;;;;5008242;28;20069;-73
2022/01/01 08:33:58;;;;;;;38.78;19.15;;;;;;;;;;5010114;28;20120;-73
2022/01/01 08:36:24;;;;;;;35.80;18.35;;;;;;;;;;5008286;28;20489;-74
2022/01/01 08:38:50;;;;;;;39.55;17.20;;;;;;;;;;5002643;28;20119;-73
2022/01/01 08:41:16;;;;;;;40.00;17.95;;;;;;;;;;5007597;28;20054;-73
2022/01/01 08:43:42;;;;;;;33.55;16.52;;;;;;;;;;5012200;28;20042;-73
2022/01/01 08:46:08;;;;;;;31.55;16.10;;;;;;;;;;5021831;28;20053;-73
2022/01/01 08:48:34;;;;;;;32.85;15.82;;;;;;;;;;5007074;28;20080;-73
2022/01/01 08:51:11;;;;;;;32.30;16.27;;;;;;;;;;5002707;28;20054;-73
2022/01/01 08:53:37;;;;;;;28.23;14.52;;;;;;;;;;5010842;28;20073;-74
2022/01/01 08:56:07;;;;;;;35.72;16.50;;;;;;;;;;5004215;28;20089;-74
2022/01/01 08:58:34;;;;;;;33.63;16.25;;;;;;;;;;5008103;28;20064;-73
2022/01/01 09:01:00;;;;;;;36.55;17.48;;;;;;;;;;5008422;28;20058;-74
2022/01/01 09:03:26;;;;;;;33.05;15.07;;;;;;;;;;5006531;28;20073;-74
2022/01/01 09:05:52;;;;;;;29.52;17.00;;;;;;;;;;5007743;28;20053;-74
2022/01/01 09:08:18;;;;;;;31.08;21.73;;;;;;;;;;5007987;28;20169;-74
2022/01/01 09:10:44;;;;;;;32.30;15.88;;;;;;;;;;5006059;28;20037;-74
2022/01/01 09:13:10;;;;;;;28.08;15.30;;;;;;;;;;5006264;28;20038;-74
2022/01/01 09:15:36;;;;;;;35.53;16.67;;;;;;;;;;5002300;28;20038;-74
2022/01/01 09:18:02;;;;;;;38.50;20.98;;;;;;;;;;5001445;28;20134;-74
2022/01/01 09:20:28;;;;;;;27.13;16.13;;;;;;;;;;5009924;28;20469;-74
2022/01/01 09:22:54;;;;;;;26.92;16.05;;;;;;;;;;5004953;28;20125;-74
2022/01/01 09:25:20;;;;;;;29.40;15.15;;;;;;;;;;5005456;28;20085;-74
2022/01/01 09:27:46;;;;;;;26.83;14.25;;;;;;;;;;5005000;28;20050;-74
2022/01/01 09:30:12;;;;;;;29.05;14.10;;;;;;;;;;5009104;28;20038;-74
2022/01/01 09:32:38;;;;;;;30.48;15.13;;;;;;;;;;5005866;28;20115;-74
2022/01/01 09:35:05;;;;;;;31.02;15.93;;;;;;;;;;5008819;28;20038;-74
2022/01/01 09:37:32;;;;;;;30.50;15.43;;;;;;;;;;5005538;28;20042;-74
2022/01/01 09:39:59;;;;;;;27.08;15.63;;;;;;;;;;5004918;28;20042;-74
2022/01/01 09:42:25;;;;;;;28.95;17.15;;;;;;;;;;5007346;28;20530;-74
2022/01/01 09:44:54;;;;;;;30.88;16.90;;;;;;;;;;5002181;28;20048;-74
2022/01/01 09:47:20;;;;;;;28.58;16.13;;;;;;;;;;5008440;28;20057;-74
2022/01/01 09:49:46;;;;;;;32.83;17.92;;;;;;;;;;5017435;23;20108;-74
2022/01/01 09:52:14;;;;;;;30.55;17.30;;;;;;;;;;5030426;28;20049;-74
2022/01/01 09:54:41;;;;;;;33.95;19.02;;;;;;;;;;5024055;28;20099;-74
2022/01/01 09:57:10;;;;;;;34.58;19.70;;;;;;;;;;5025330;28;20045;-74
2022/01/01 09:59:37;;;;;;;34.75;20.27;;;;;;;;;;5024050;28;20060;-74
2022/01/01 10:02:03;;;;;;;37.50;21.55;;;;;;;;;;5029117;28;20047;-74
2022/01/01 10:04:39;;;;;;;33.38;19.67;;;;;;;;;;5025922;28;20045;-74
2022/01/01 10:07:06;;;;;;;33.22;19.13;;;;;;;;;;5032684;28;20037;-74
2022/01/01 10:09:37;;;;;;;37.15;22.33;;;;;;;;;;5027086;28;20171;-74
2022/01/01 10:12:06;;;;;;;35.47;20.23;;;;;;;;;;5023900;28;20088;-74
2022/01/01 10:14:39;;;;;;;35.38;18.65;;;;;;;;;;5022868;28;20049;-75
2022/01/01 10:17:05;;;;;;;;;;;;;;;;;;5022086;28;20049;-74
2022/01/01 10:19:31;;;;;;;34.83;18.95;;;;;;;;;;5024906;28;20021;-74
2022/01/01 10:21:58;;;;;;;36.85;20.13;;;;;;;;;;5027215;28;20078;-74
2022/01/01 10:24:41;;;;;;;34.38;19.60;;;;;;;;;;5022222;28;20145;-74
2022/01/01 10:29:58;;;;;;;29.65;18.20;;;;;;;;;;5026704;28;20049;-74
2022/01/01 10:32:24;;;;;;;32.65;17.83;;;;;;;;;;5026687;28;20045;-74
2022/01/01 10:34:50;;;;;;;31.08;17.92;;;;;;;;;;5025007;28;20057;-74
2022/01/01 10:37:17;;;;;;;27.30;16.52;;;;;;;;;;5023468;28;20045;-74
2022/01/01 10:39:50;;;;;;;26.20;16.05;;;;;;;;;;5024045;28;20042;-74
2022/01/01 10:42:17;;;;;;;28.50;16.45;;;;;;;;;;5026450;28;20052;-74
2022/01/01 10:44:46;;;;;;;18.98;12.73;;;;;;;;;;5022087;28;20478;-74
2022/01/01 10:47:25;;;;;;;22.77;14.73;;;;;;;;;;5028957;28;20096;-74
2022/01/01 10:50:14;;;;;;;25.48;15.85;;;;;;;;;;5022604;28;20057;-74
2022/01/01 10:52:42;;;;;;;20.95;13.52;;;;;;;;;;5024834;28;20081;-75
2022/01/01 10:55:09;;;;;;;24.20;15.70;;;;;;;;;;5026883;28;20057;-74
2022/01/01 10:57:39;;;;;;;21.58;15.93;;;;;;;;;;5025351;28;20037;-74
2022/01/01 11:00:07;;;;;;;22.70;13.48;;;;;;;;;;5027452;28;20565;-74
2022/01/01 11:02:34;;;;;;;20.65;13.55;;;;;;;;;;5022640;28;20049;-74
2022/01/01 11:05:00;;;;;;;20.60;14.13;;;;;;;;;;5027366;28;20140;-74
2022/01/01 11:07:27;;;;;;;24.13;14.15;;;;;;;;;;5027861;28;20045;-74
2022/01/01 11:09:53;;;;;;;19.83;13.25;;;;;;;;;;5026298;28;20045;-74
2022/01/01 11:12:21;;;;;;;22.55;14.32;;;;;;;;;;5028345;28;20413;-74
2022/01/01 11:14:49;;;;;;;21.67;13.15;;;;;;;;;;5021986;28;20048;-74
2022/01/01 11:17:16;;;;;;;22.55;14.02;;;;;;;;;;5026660;28;20049;-74
2022/01/01 11:19:42;;;;;;;22.85;13.48;;;;;;;;;;5023940;28;20604;-74
2022/01/01 11:22:09;;;;;;;23.10;13.63;;;;;;;;;;5027716;28;20128;-74
2022/01/01 11:24:38;;;;;;;23.15;12.98;;;;;;;;;;5025005;28;20046;-74
2022/01/01 11:27:05;;;;;;;23.67;13.93;;;;;;;;;;5022239;28;20149;-74
2022/01/01 11:29:31;;;;;;;22.90;13.77;;;;;;;;;;5025813;28;20058;-75
2022/01/01 11:31:57;;;;;;;28.13;14.20;;;;;;;;;;5026137;28;20493;-75
2022/01/01 11:34:23;;;;;;;21.00;13.30;;;;;;;;;;5027719;28;20136;-74
2022/01/01 11:36:49;;;;;;;20.50;13.43;;;;;;;;;;5030948;28;20468;-75
2022/01/01 11:39:15;;;;;;;22.30;13.80;;;;;;;;;;5026843;28;20088;-74
2022/01/01 11:41:43;;;;;;;23.77;13.60;;;;;;;;;;5027795;28;20490;-74
2022/01/01 11:44:28;;;;;;;19.33;12.27;;;;;;;;;;5032552;28;20491;-75
2022/01/01 11:47:03;;;;;;;17.92;13.10;;;;;;;;;;5028891;28;20037;-75
2022/01/01 11:49:30;;;;;;;22.58;12.80;;;;;;;;;;5026885;28;20072;-75
2022/01/01 11:51:57;;;;;;;18.15;12.65;;;;;;;;;;5029238;28;20559;-74
2022/01/01 11:54:24;;;;;;;23.63;12.82;;;;;;;;;;5029506;28;20095;-74
2022/01/01 11:56:50;;;;;;;20.80;12.20;;;;;;;;;;5029834;28;20394;-74
2022/01/01 11:59:21;;;;;;;21.27;12.63;;;;;;;;;;5026671;28;20061;-75
2022/01/01 12:01:47;;;;;;;18.42;13.18;;;;;;;;;;5028876;28;20041;-74
2022/01/01 12:04:28;;;;;;;20.05;13.10;;;;;;;;;;5028380;28;20037;-75
2022/01/01 12:06:55;;;;;;;24.35;16.60;;;;;;;;;;5029772;28;20042;-75
2022/01/01 12:09:22;;;;;;;17.95;13.23;;;;;;;;;;5030423;28;20152;-75
2022/01/01 12:11:57;;;;;;;18.45;13.02;;;;;;;;;;5023481;28;20061;-75
2022/01/01 12:14:24;;;;;;;19.63;13.43;;;;;;;;;;5025226;28;20050;-74
2022/01/01 12:16:52;;;;;;;18.30;12.77;;;;;;;;;;5026535;28;20129;-75
2022/01/01 12:19:20;;;;;;;23.15;13.77;;;;;;;;;;5025351;28;20057;-75
2022/01/01 12:21:48;;;;;;;23.55;13.45;;;;;;;;;;5027095;28;20041;-74
2022/01/01 12:24:18;;;;;;;20.73;13.32;;;;;;;;;;5028532;28;20049;-74
2022/01/01 12:26:51;;;;;;;18.42;13.52;;;;;;;;;;5027279;28;20397;-75
2022/01/01 12:29:22;;;;;;;21.58;13.13;;;;;;;;;;5024682;28;20058;-75
2022/01/01 12:31:55;;;;;;;22.10;13.55;;;;;;;;;;5029366;28;20045;-75
2022/01/01 12:34:22;;;;;;;18.35;12.85;;;;;;;;;;5027576;28;20053;-74
2022/01/01 12:36:55;;;;;;;18.23;13.20;;;;;;;;;;5029053;28;20088;-75
2022/01/01 12:39:21;;;;;;;19.88;13.13;;;;;;;;;;5028717;28;20060;-75
2022/01/01 12:41:47;;;;;;;19.20;13.80;;;;;;;;;;5025768;28;20554;-74
2022/01/01 12:44:13;;;;;;;22.80;13.35;;;;;;;;;;5030028;28;20049;-75
2022/01/01 12:46:50;;;;;;;19.52;13.68;;;;;;;;;;5246684;23;20103;-75
2022/01/01 12:49:16;;;;;;;19.88;13.95;;;;;;;;;;5029508;28;20092;-75
2022/01/01 12:51:43;;;;;;;21.05;14.27;;;;;;;;;;5024397;28;20350;-75
2022/01/01 12:54:13;;;;;;;20.00;13.73;;;;;;;;;;5023958;28;20077;-74
2022/01/01 12:56:41;;;;;;;20.88;14.13;;;;;;;;;;5026022;28;20048;-74
2022/01/01 12:59:09;;;;;;;22.70;15.18;;;;;;;;;;5029131;28;20052;-75
2022/01/01 13:01:37;;;;;;;22.90;16.13;;;;;;;;;;5026585;28;20049;-75
2022/01/01 13:04:10;;;;;;;21.52;14.77;;;;;;;;;;5026790;28;20045;-75
2022/01/01 13:06:41;;;;;;;22.15;14.73;;;;;;;;;;5028308;28;20052;-75
2022/01/01 13:09:11;;;;;;;20.35;14.43;;;;;;;;;;5029112;28;20607;-75
2022/01/01 13:11:38;;;;;;;22.70;14.68;;;;;;;;;;5024114;28;20390;-75
2022/01/01 13:14:05;;;;;;;22.80;15.35;;;;;;;;;;5027820;28;21753;-75
2022/01/01 13:16:32;;;;;;;23.17;14.63;;;;;;;;;;5028304;28;20401;-75
2022/01/01 13:18:58;;;;;;;22.90;15.35;;;;;;;;;;5029817;28;20069;-75
2022/01/01 13:21:24;;;;;;;21.75;15.55;;;;;;;;;;5043249;28;20049;-75
2022/01/01 13:23:51;;;;;;;19.10;14.70;;;;;;;;;;5028106;28;20043;-75
2022/01/01 13:26:18;;;;;;;23.95;15.57;;;;;;;;;;5027385;28;20038;-75
2022/01/01 13:28:44;;;;;;;22.25;16.58;;;;;;;;;;5044664;28;20556;-75
2022/01/01 13:31:10;;;;;;;23.08;16.73;;;;;;;;;;5025342;28;20137;-75
2022/01/01 13:33:40;;;;;;;25.77;17.08;;;;;;;;;;5025011;28;20117;-75
2022/01/01 13:36:06;;;;;;;27.42;18.13;;;;;;;;;;5026281;28;20041;-75
2022/01/01 13:38:33;;;;;;;29.75;21.08;;;;;;;;;;5020828;28;20071;-75
2022/01/01 13:41:00;;;;;;;26.70;17.95;;;;;;;;;;5024601;28;20485;-76
2022/01/01 13:43:27;;;;;;;27.60;18.80;;;;;;;;;;5025091;28;20060;-75
2022/01/01 13:46:04;;;;;;;27.15;18.92;;;;;;;;;;5024974;28;20104;-76
2022/01/01 13:48:39;;;;;;;26.00;19.10;;;;;;;;;;5028441;28;20060;-75
2022/01/01 13:51:05;;;;;;;23.63;17.17;;;;;;;;;;5026422;28;20046;-75
2022/01/01 13:53:31;;;;;;;25.50;19.08;;;;;;;;;;5021578;28;20049;-75
2022/01/01 13:56:02;;;;;;;25.77;19.65;;;;;;;;;;5026775;28;20056;-76
2022/01/01 13:58:28;;;;;;;27.15;19.80;;;;;;;;;;5024291;28;20171;-76
2022/01/01 14:00:57;;;;;;;28.75;19.23;;;;;;;;;;5024748;28;20064;-76
2022/01/01 14:03:24;;;;;;;28.92;20.80;;;;;;;;;;5024320;28;20129;-75
2022/01/01 14:05:51;;;;;;;23.95;19.13;;;;;;;;;;5033159;28;20051;-75
2022/01/01 14:08:17;;;;;;;29.63;20.30;;;;;;;;;;5030275;28;20357;-75
2022/01/01 14:10:52;;;;;;;27.17;19.80;;;;;;;;;;5028039;28;20053;-75
2022/01/01 14:13:35;;;;;;;27.33;19.08;;;;;;;;;;5027958;28;20463;-75
2022/01/01 14:16:02;;;;;;;27.75;18.65;;;;;;;;;;5032559;28;20045;-75
2022/01/01 14:18:29;;;;;;;33.33;23.58;;;;;;;;;;5023917;28;20057;-75
2022/01/01 14:20:55;;;;;;;27.30;20.73;;;;;;;;;;5023662;28;20046;-75
2022/01/01 14:23:34;;;;;;;26.83;20.17;;;;;;;;;;5023971;28;20076;-75